sensor_id;sensor_type;location;lat;lon;timestamp;temperature;humidity
36424;DHT22;22458;45.328;9.514;2022-12-13T00:01:20;8.50;72.90
36424;DHT22;22458;45.328;9.514;2022-12-13T00:03:46;8.60;72.80
36424;DHT22;22458;45.328;9.514;2022-12-13T00:06:12;8.60;72.80
36424;DHT22;22458;45.328;9.514;2022-12-13T00:08:38;8.60;72.80
36424;DHT22;22458;45.328;9.514;2022-12-13T00:11:06;8.50;72.80
36424;DHT22;22458;45.328;9.514;2022-12-13T00:13:32;8.40;72.90
36424;DHT22;22458;45.328;9.514;2022-12-13T00:16:04;8.30;73.40
36424;DHT22;22458;45.328;9.514;2022-12-13T00:18:31;8.30;73.50
36424;DHT22;22458;45.328;9.514;2022-12-13T00:20:57;8.30;73.40
36424;DHT22;22458;45.328;9.514;2022-12-13T00:23:22;8.20;73.30
36424;DHT22;22458;45.328;9.514;2022-12-13T00:25:48;8.00;73.70
36424;DHT22;22458;45.328;9.514;2022-12-13T00:28:15;7.80;74.20
36424;DHT22;22458;45.328;9.514;2022-12-13T00:30:41;7.70;74.70
36424;DHT22;22458;45.328;9.514;2022-12-13T00:33:07;7.70;74.70
36424;DHT22;22458;45.328;9.514;2022-12-13T00:35:42;7.60;74.80
36424;DHT22;22458;45.328;9.514;2022-12-13T00:38:10;7.50;75.30
36424;DHT22;22458;45.328;9.514;2022-12-13T00:40:36;7.40;75.60
36424;DHT22;22458;45.328;9.514;2022-12-13T00:43:01;7.40;75.50
36424;DHT22;22458;45.328;9.514;2022-12-13T00:45:27;7.20;76.00
36424;DHT22;22458;45.328;9.514;2022-12-13T00:47:53;7.20;76.30
36424;DHT22;22458;45.328;9.514;2022-12-13T00:50:18;7.20;76.20
36424;DHT22;22458;45.328;9.514;2022-12-13T00:52:44;7.40;76.00
36424;DHT22;22458;45.328;9.514;2022-12-13T00:55:10;7.50;75.60
36424;DHT22;22458;45.328;9.514;2022-12-13T00:57:36;7.60;75.20
36424;DHT22;22458;45.328;9.514;2022-12-13T01:00:04;7.70;75.10
36424;DHT22;22458;45.328;9.514;2022-12-13T01:02:30;7.70;74.90
36424;DHT22;22458;45.328;9.514;2022-12-13T01:04:56;7.80;74.90
36424;DHT22;22458;45.328;9.514;2022-12-13T01:07:22;7.70;74.60
36424;DHT22;22458;45.328;9.514;2022-12-13T01:09:48;7.70;74.70
36424;DHT22;22458;45.328;9.514;2022-12-13T01:12:14;7.40;75.20
36424;DHT22;22458;45.328;9.514;2022-12-13T01:14:40;7.40;75.50
36424;DHT22;22458;45.328;9.514;2022-12-13T01:17:06;7.50;75.60
36424;DHT22;22458;45.328;9.514;2022-12-13T01:19:32;7.60;75.30
36424;DHT22;22458;45.328;9.514;2022-12-13T01:22:04;7.70;75.00
36424;DHT22;22458;45.328;9.514;2022-12-13T01:24:30;7.80;74.80
36424;DHT22;22458;45.328;9.514;2022-12-13T01:26:57;7.80;74.70
36424;DHT22;22458;45.328;9.514;2022-12-13T01:29:23;7.80;74.80
36424;DHT22;22458;45.328;9.514;2022-12-13T01:31:49;7.70;75.00
36424;DHT22;22458;45.328;9.514;2022-12-13T01:34:17;7.70;75.00
36424;DHT22;22458;45.328;9.514;2022-12-13T01:36:44;7.80;74.80
36424;DHT22;22458;45.328;9.514;2022-12-13T01:39:17;7.90;74.60
36424;DHT22;22458;45.328;9.514;2022-12-13T01:41:47;8.00;74.30
36424;DHT22;22458;45.328;9.514;2022-12-13T01:47:18;7.40;75.50
36424;DHT22;22458;45.328;9.514;2022-12-13T01:49:45;7.10;76.30
36424;DHT22;22458;45.328;9.514;2022-12-13T01:52:12;7.00;76.80
36424;DHT22;22458;45.328;9.514;2022-12-13T01:54:42;7.00;77.00
36424;DHT22;22458;45.328;9.514;2022-12-13T01:57:09;7.00;77.00
36424;DHT22;22458;45.328;9.514;2022-12-13T01:59:39;7.10;76.80
36424;DHT22;22458;45.328;9.514;2022-12-13T02:02:06;7.00;77.00
36424;DHT22;22458;45.328;9.514;2022-12-13T02:07:26;6.60;78.10
36424;DHT22;22458;45.328;9.514;2022-12-13T02:09:56;6.60;78.20
36424;DHT22;22458;45.328;9.514;2022-12-13T02:12:27;6.50;78.50
36424;DHT22;22458;45.328;9.514;2022-12-13T02:14:53;6.50;78.90
36424;DHT22;22458;45.328;9.514;2022-12-13T02:20:29;6.70;78.70
36424;DHT22;22458;45.328;9.514;2022-12-13T02:34:14;7.10;77.20
36424;DHT22;22458;45.328;9.514;2022-12-13T02:39:16;7.40;76.50
36424;DHT22;22458;45.328;9.514;2022-12-13T02:41:51;7.30;76.50
36424;DHT22;22458;45.328;9.514;2022-12-13T02:44:33;7.10;77.10
36424;DHT22;22458;45.328;9.514;2022-12-13T02:47:05;6.90;77.60
36424;DHT22;22458;45.328;9.514;2022-12-13T02:49:37;6.70;78.60
36424;DHT22;22458;45.328;9.514;2022-12-13T02:52:03;6.40;79.30
36424;DHT22;22458;45.328;9.514;2022-12-13T02:54:30;6.30;79.60
36424;DHT22;22458;45.328;9.514;2022-12-13T02:56:57;6.10;80.30
36424;DHT22;22458;45.328;9.514;2022-12-13T02:59:34;6.10;80.60
36424;DHT22;22458;45.328;9.514;2022-12-13T03:02:21;6.10;80.50
36424;DHT22;22458;45.328;9.514;2022-12-13T03:11:24;6.50;80.10
36424;DHT22;22458;45.328;9.514;2022-12-13T03:13:59;6.60;79.60
36424;DHT22;22458;45.328;9.514;2022-12-13T03:16:34;6.60;79.50
36424;DHT22;22458;45.328;9.514;2022-12-13T03:19:04;6.60;79.50
36424;DHT22;22458;45.328;9.514;2022-12-13T03:21:38;6.60;79.50
36424;DHT22;22458;45.328;9.514;2022-12-13T03:24:05;6.70;79.30
36424;DHT22;22458;45.328;9.514;2022-12-13T03:26:31;6.80;79.10
36424;DHT22;22458;45.328;9.514;2022-12-13T03:28:56;6.70;79.10
36424;DHT22;22458;45.328;9.514;2022-12-13T03:31:24;6.80;79.40
36424;DHT22;22458;45.328;9.514;2022-12-13T03:33:49;6.90;79.20
36424;DHT22;22458;45.328;9.514;2022-12-13T03:36:16;7.10;78.90
36424;DHT22;22458;45.328;9.514;2022-12-13T03:38:44;7.10;78.60
36424;DHT22;22458;45.328;9.514;2022-12-13T03:41:12;7.20;78.70
36424;DHT22;22458;45.328;9.514;2022-12-13T03:43:38;7.20;78.70
36424;DHT22;22458;45.328;9.514;2022-12-13T03:46:06;7.10;78.70
36424;DHT22;22458;45.328;9.514;2022-12-13T03:48:32;7.10;78.90
36424;DHT22;22458;45.328;9.514;2022-12-13T03:50:58;7.30;78.70
36424;DHT22;22458;45.328;9.514;2022-12-13T03:53:24;7.40;78.20
36424;DHT22;22458;45.328;9.514;2022-12-13T03:55:50;7.40;78.00
36424;DHT22;22458;45.328;9.514;2022-12-13T03:58:16;7.40;78.20
36424;DHT22;22458;45.328;9.514;2022-12-13T04:00:42;7.50;78.00
36424;DHT22;22458;45.328;9.514;2022-12-13T04:03:08;7.60;77.70
36424;DHT22;22458;45.328;9.514;2022-12-13T04:05:34;7.70;77.50
36424;DHT22;22458;45.328;9.514;2022-12-13T04:08:00;7.70;77.40
36424;DHT22;22458;45.328;9.514;2022-12-13T04:10:25;7.40;77.80
36424;DHT22;22458;45.328;9.514;2022-12-13T04:12:51;7.30;78.40
36424;DHT22;22458;45.328;9.514;2022-12-13T04:15:36;7.40;78.50
36424;DHT22;22458;45.328;9.514;2022-12-13T04:18:02;7.60;78.10
36424;DHT22;22458;45.328;9.514;2022-12-13T04:20:27;7.70;77.70
36424;DHT22;22458;45.328;9.514;2022-12-13T04:22:53;7.90;77.40
36424;DHT22;22458;45.328;9.514;2022-12-13T04:25:19;8.00;77.10
36424;DHT22;22458;45.328;9.514;2022-12-13T04:27:45;8.10;76.70
36424;DHT22;22458;45.328;9.514;2022-12-13T04:30:11;8.20;76.50
36424;DHT22;22458;45.328;9.514;2022-12-13T04:32:37;8.30;76.20
36424;DHT22;22458;45.328;9.514;2022-12-13T04:35:03;8.30;76.20
36424;DHT22;22458;45.328;9.514;2022-12-13T04:37:30;8.40;76.20
36424;DHT22;22458;45.328;9.514;2022-12-13T04:39:55;8.30;76.40
36424;DHT22;22458;45.328;9.514;2022-12-13T04:42:21;8.30;76.40
36424;DHT22;22458;45.328;9.514;2022-12-13T04:44:47;8.30;76.60
36424;DHT22;22458;45.328;9.514;2022-12-13T04:47:14;8.30;76.50
36424;DHT22;22458;45.328;9.514;2022-12-13T04:49:40;8.30;76.60
36424;DHT22;22458;45.328;9.514;2022-12-13T04:52:06;8.40;76.50
36424;DHT22;22458;45.328;9.514;2022-12-13T04:54:32;8.40;76.30
36424;DHT22;22458;45.328;9.514;2022-12-13T04:56:58;8.40;76.40
36424;DHT22;22458;45.328;9.514;2022-12-13T04:59:24;8.30;76.40
36424;DHT22;22458;45.328;9.514;2022-12-13T05:01:50;8.10;76.90
36424;DHT22;22458;45.328;9.514;2022-12-13T05:04:15;8.10;77.10
36424;DHT22;22458;45.328;9.514;2022-12-13T05:06:41;8.30;77.00
36424;DHT22;22458;45.328;9.514;2022-12-13T05:09:07;8.40;76.50
36424;DHT22;22458;45.328;9.514;2022-12-13T05:11:33;8.60;76.20
36424;DHT22;22458;45.328;9.514;2022-12-13T05:13:59;8.70;75.80
36424;DHT22;22458;45.328;9.514;2022-12-13T05:16:25;8.70;75.70
36424;DHT22;22458;45.328;9.514;2022-12-13T05:18:50;8.60;75.70
36424;DHT22;22458;45.328;9.514;2022-12-13T05:21:16;8.60;75.90
36424;DHT22;22458;45.328;9.514;2022-12-13T05:23:42;8.60;76.00
36424;DHT22;22458;45.328;9.514;2022-12-13T05:26:08;8.50;76.10
36424;DHT22;22458;45.328;9.514;2022-12-13T05:28:33;8.60;76.10
36424;DHT22;22458;45.328;9.514;2022-12-13T05:31:10;8.60;75.90
36424;DHT22;22458;45.328;9.514;2022-12-13T05:33:37;8.80;75.90
36424;DHT22;22458;45.328;9.514;2022-12-13T05:36:03;8.80;75.60
36424;DHT22;22458;45.328;9.514;2022-12-13T05:38:30;8.90;75.50
36424;DHT22;22458;45.328;9.514;2022-12-13T05:40:56;8.90;75.30
36424;DHT22;22458;45.328;9.514;2022-12-13T05:43:22;8.80;75.50
36424;DHT22;22458;45.328;9.514;2022-12-13T05:45:49;8.70;75.70
36424;DHT22;22458;45.328;9.514;2022-12-13T05:48:15;8.20;76.80
36424;DHT22;22458;45.328;9.514;2022-12-13T05:50:41;7.70;78.00
36424;DHT22;22458;45.328;9.514;2022-12-13T05:53:07;7.50;78.90
36424;DHT22;22458;45.328;9.514;2022-12-13T05:55:33;7.40;79.50
36424;DHT22;22458;45.328;9.514;2022-12-13T05:57:58;7.10;80.10
36424;DHT22;22458;45.328;9.514;2022-12-13T06:00:25;7.00;80.70
36424;DHT22;22458;45.328;9.514;2022-12-13T06:02:51;7.10;80.50
36424;DHT22;22458;45.328;9.514;2022-12-13T06:05:17;7.20;80.50
36424;DHT22;22458;45.328;9.514;2022-12-13T06:07:42;7.20;80.20
36424;DHT22;22458;45.328;9.514;2022-12-13T06:10:08;7.20;80.40
36424;DHT22;22458;45.328;9.514;2022-12-13T06:12:35;7.20;80.50
36424;DHT22;22458;45.328;9.514;2022-12-13T06:15:01;7.50;80.10
36424;DHT22;22458;45.328;9.514;2022-12-13T06:17:34;7.50;79.40
36424;DHT22;22458;45.328;9.514;2022-12-13T06:20:00;7.50;79.50
36424;DHT22;22458;45.328;9.514;2022-12-13T06:22:26;7.60;79.40
36424;DHT22;22458;45.328;9.514;2022-12-13T06:24:52;7.60;79.40
36424;DHT22;22458;45.328;9.514;2022-12-13T06:27:20;7.50;79.80
36424;DHT22;22458;45.328;9.514;2022-12-13T06:29:46;7.80;79.30
36424;DHT22;22458;45.328;9.514;2022-12-13T06:32:11;8.10;78.50
36424;DHT22;22458;45.328;9.514;2022-12-13T06:34:37;8.30;77.70
36424;DHT22;22458;45.328;9.514;2022-12-13T06:37:05;8.50;77.10
36424;DHT22;22458;45.328;9.514;2022-12-13T06:39:32;8.70;76.60
36424;DHT22;22458;45.328;9.514;2022-12-13T06:41:57;8.90;76.40
36424;DHT22;22458;45.328;9.514;2022-12-13T06:44:23;8.90;76.10
36424;DHT22;22458;45.328;9.514;2022-12-13T06:46:50;8.90;75.80
36424;DHT22;22458;45.328;9.514;2022-12-13T06:49:15;9.00;75.70
36424;DHT22;22458;45.328;9.514;2022-12-13T06:51:41;9.10;75.80
36424;DHT22;22458;45.328;9.514;2022-12-13T06:54:07;9.10;75.20
36424;DHT22;22458;45.328;9.514;2022-12-13T06:56:33;9.20;75.10
36424;DHT22;22458;45.328;9.514;2022-12-13T06:58:58;9.20;75.10
36424;DHT22;22458;45.328;9.514;2022-12-13T07:01:24;9.10;75.30
36424;DHT22;22458;45.328;9.514;2022-12-13T07:03:53;9.00;75.40
36424;DHT22;22458;45.328;9.514;2022-12-13T07:06:20;8.70;76.10
36424;DHT22;22458;45.328;9.514;2022-12-13T07:08:54;8.60;77.00
36424;DHT22;22458;45.328;9.514;2022-12-13T07:11:28;8.50;77.20
36424;DHT22;22458;45.328;9.514;2022-12-13T07:13:55;8.50;77.30
36424;DHT22;22458;45.328;9.514;2022-12-13T07:16:22;8.50;77.40
36424;DHT22;22458;45.328;9.514;2022-12-13T07:19:01;8.50;77.50
36424;DHT22;22458;45.328;9.514;2022-12-13T07:21:29;8.50;77.60
36424;DHT22;22458;45.328;9.514;2022-12-13T07:23:56;8.40;77.80
36424;DHT22;22458;45.328;9.514;2022-12-13T07:26:22;8.10;78.40
36424;DHT22;22458;45.328;9.514;2022-12-13T07:28:48;7.90;79.00
36424;DHT22;22458;45.328;9.514;2022-12-13T07:31:14;7.60;79.70
36424;DHT22;22458;45.328;9.514;2022-12-13T07:33:40;7.50;80.30
36424;DHT22;22458;45.328;9.514;2022-12-13T07:36:07;7.60;80.40
36424;DHT22;22458;45.328;9.514;2022-12-13T07:38:34;7.60;80.40
36424;DHT22;22458;45.328;9.514;2022-12-13T07:41:00;7.60;80.40
36424;DHT22;22458;45.328;9.514;2022-12-13T07:43:26;7.70;80.20
36424;DHT22;22458;45.328;9.514;2022-12-13T07:45:53;7.80;79.90
36424;DHT22;22458;45.328;9.514;2022-12-13T07:48:22;7.90;79.60
36424;DHT22;22458;45.328;9.514;2022-12-13T07:50:48;8.00;79.40
36424;DHT22;22458;45.328;9.514;2022-12-13T07:53:13;7.90;79.40
36424;DHT22;22458;45.328;9.514;2022-12-13T07:55:39;7.70;80.00
36424;DHT22;22458;45.328;9.514;2022-12-13T07:58:14;7.60;80.40
36424;DHT22;22458;45.328;9.514;2022-12-13T08:00:42;7.60;80.70
36424;DHT22;22458;45.328;9.514;2022-12-13T08:03:08;7.60;80.70
36424;DHT22;22458;45.328;9.514;2022-12-13T08:05:35;7.50;80.70
36424;DHT22;22458;45.328;9.514;2022-12-13T08:08:02;7.40;81.00
36424;DHT22;22458;45.328;9.514;2022-12-13T08:10:28;7.20;81.50
36424;DHT22;22458;45.328;9.514;2022-12-13T08:12:54;7.00;82.50
36424;DHT22;22458;45.328;9.514;2022-12-13T08:15:20;7.00;82.70
36424;DHT22;22458;45.328;9.514;2022-12-13T08:17:47;6.90;82.80
36424;DHT22;22458;45.328;9.514;2022-12-13T08:20:13;7.00;83.10
36424;DHT22;22458;45.328;9.514;2022-12-13T08:22:39;7.10;82.80
36424;DHT22;22458;45.328;9.514;2022-12-13T08:25:05;7.10;82.70
36424;DHT22;22458;45.328;9.514;2022-12-13T08:27:31;7.20;82.50
36424;DHT22;22458;45.328;9.514;2022-12-13T08:29:57;7.20;82.40
36424;DHT22;22458;45.328;9.514;2022-12-13T08:32:23;7.20;82.50
36424;DHT22;22458;45.328;9.514;2022-12-13T08:34:49;7.20;82.20
36424;DHT22;22458;45.328;9.514;2022-12-13T08:37:16;7.40;82.00
36424;DHT22;22458;45.328;9.514;2022-12-13T08:39:42;7.30;81.60
36424;DHT22;22458;45.328;9.514;2022-12-13T08:42:14;7.20;82.20
36424;DHT22;22458;45.328;9.514;2022-12-13T08:44:41;7.20;82.30
36424;DHT22;22458;45.328;9.514;2022-12-13T08:47:07;7.10;82.50
36424;DHT22;22458;45.328;9.514;2022-12-13T08:49:32;7.20;82.50
36424;DHT22;22458;45.328;9.514;2022-12-13T08:51:58;7.30;82.20
36424;DHT22;22458;45.328;9.514;2022-12-13T08:54:24;7.30;82.00
36424;DHT22;22458;45.328;9.514;2022-12-13T08:56:50;7.30;82.00
36424;DHT22;22458;45.328;9.514;2022-12-13T08:59:17;7.00;82.50
36424;DHT22;22458;45.328;9.514;2022-12-13T09:01:44;6.90;83.00
36424;DHT22;22458;45.328;9.514;2022-12-13T09:04:10;7.00;83.00
36424;DHT22;22458;45.328;9.514;2022-12-13T09:06:36;7.10;82.70
36424;DHT22;22458;45.328;9.514;2022-12-13T09:09:02;7.00;82.70
36424;DHT22;22458;45.328;9.514;2022-12-13T09:11:28;7.10;83.00
36424;DHT22;22458;45.328;9.514;2022-12-13T09:13:54;7.20;82.70
36424;DHT22;22458;45.328;9.514;2022-12-13T09:16:20;7.20;83.10
36424;DHT22;22458;45.328;9.514;2022-12-13T09:18:50;7.20;83.00
36424;DHT22;22458;45.328;9.514;2022-12-13T09:21:16;6.70;83.30
36424;DHT22;22458;45.328;9.514;2022-12-13T09:23:42;6.50;84.30
36424;DHT22;22458;45.328;9.514;2022-12-13T09:26:13;6.30;84.80
36424;DHT22;22458;45.328;9.514;2022-12-13T09:28:39;6.40;84.90
36424;DHT22;22458;45.328;9.514;2022-12-13T09:31:26;6.50;84.60
36424;DHT22;22458;45.328;9.514;2022-12-13T09:33:51;6.50;84.60
36424;DHT22;22458;45.328;9.514;2022-12-13T09:36:19;6.50;85.20
36424;DHT22;22458;45.328;9.514;2022-12-13T09:38:46;6.50;84.80
36424;DHT22;22458;45.328;9.514;2022-12-13T09:41:19;6.50;84.70
36424;DHT22;22458;45.328;9.514;2022-12-13T09:43:51;6.60;84.80
36424;DHT22;22458;45.328;9.514;2022-12-13T09:46:35;6.60;84.60
36424;DHT22;22458;45.328;9.514;2022-12-13T09:49:05;6.60;84.60
36424;DHT22;22458;45.328;9.514;2022-12-13T09:51:32;6.40;84.90
36424;DHT22;22458;45.328;9.514;2022-12-13T09:53:59;6.30;85.50
36424;DHT22;22458;45.328;9.514;2022-12-13T09:56:26;6.30;85.50
36424;DHT22;22458;45.328;9.514;2022-12-13T09:58:54;6.20;85.50
36424;DHT22;22458;45.328;9.514;2022-12-13T10:01:21;6.00;86.10
36424;DHT22;22458;45.328;9.514;2022-12-13T10:03:49;6.00;86.50
36424;DHT22;22458;45.328;9.514;2022-12-13T10:06:18;6.00;86.70
36424;DHT22;22458;45.328;9.514;2022-12-13T10:08:53;6.30;86.10
36424;DHT22;22458;45.328;9.514;2022-12-13T10:11:20;6.50;85.60
36424;DHT22;22458;45.328;9.514;2022-12-13T10:14:06;6.50;85.50
36424;DHT22;22458;45.328;9.514;2022-12-13T10:19:20;6.30;85.70
36424;DHT22;22458;45.328;9.514;2022-12-13T10:21:48;6.40;86.00
36424;DHT22;22458;45.328;9.514;2022-12-13T10:24:19;6.30;86.10
36424;DHT22;22458;45.328;9.514;2022-12-13T10:26:45;6.40;86.00
36424;DHT22;22458;45.328;9.514;2022-12-13T10:29:11;6.50;85.60
36424;DHT22;22458;45.328;9.514;2022-12-13T10:36:46;7.10;84.40
36424;DHT22;22458;45.328;9.514;2022-12-13T10:39:38;6.90;84.30
36424;DHT22;22458;45.328;9.514;2022-12-13T10:42:14;6.90;84.80
36424;DHT22;22458;45.328;9.514;2022-12-13T10:44:40;7.00;84.70
36424;DHT22;22458;45.328;9.514;2022-12-13T10:52:33;6.90;84.80
36424;DHT22;22458;45.328;9.514;2022-12-13T10:55:03;6.90;85.10
36424;DHT22;22458;45.328;9.514;2022-12-13T10:57:29;6.80;85.10
36424;DHT22;22458;45.328;9.514;2022-12-13T10:59:55;6.80;85.90
36424;DHT22;22458;45.328;9.514;2022-12-13T11:04:51;6.90;85.10
36424;DHT22;22458;45.328;9.514;2022-12-13T11:07:29;6.80;85.10
36424;DHT22;22458;45.328;9.514;2022-12-13T11:09:57;6.70;85.60
36424;DHT22;22458;45.328;9.514;2022-12-13T11:12:25;6.60;85.70
36424;DHT22;22458;45.328;9.514;2022-12-13T11:15:04;6.50;86.30
36424;DHT22;22458;45.328;9.514;2022-12-13T11:17:33;6.40;86.70
36424;DHT22;22458;45.328;9.514;2022-12-13T11:20:06;6.60;86.50
36424;DHT22;22458;45.328;9.514;2022-12-13T11:22:40;6.70;85.90
36424;DHT22;22458;45.328;9.514;2022-12-13T11:25:07;6.60;86.10
36424;DHT22;22458;45.328;9.514;2022-12-13T11:27:57;6.40;86.60
36424;DHT22;22458;45.328;9.514;2022-12-13T11:33:13;6.60;86.90
36424;DHT22;22458;45.328;9.514;2022-12-13T11:36:14;6.60;86.10
36424;DHT22;22458;45.328;9.514;2022-12-13T11:39:24;6.60;86.70
36424;DHT22;22458;45.328;9.514;2022-12-13T11:45:41;6.60;86.50
36424;DHT22;22458;45.328;9.514;2022-12-13T11:50:17;6.70;86.50
36424;DHT22;22458;45.328;9.514;2022-12-13T11:52:53;6.80;86.20
36424;DHT22;22458;45.328;9.514;2022-12-13T11:55:25;6.80;86.10
36424;DHT22;22458;45.328;9.514;2022-12-13T11:58:06;6.80;86.10
36424;DHT22;22458;45.328;9.514;2022-12-13T12:00:53;7.00;86.00
36424;DHT22;22458;45.328;9.514;2022-12-13T12:03:43;7.00;85.80
36424;DHT22;22458;45.328;9.514;2022-12-13T12:06:19;7.10;85.20
36424;DHT22;22458;45.328;9.514;2022-12-13T12:08:55;7.30;85.10
36424;DHT22;22458;45.328;9.514;2022-12-13T12:12:00;7.20;84.60
36424;DHT22;22458;45.328;9.514;2022-12-13T12:14:45;7.10;85.20
36424;DHT22;22458;45.328;9.514;2022-12-13T12:17:14;7.20;85.30
36424;DHT22;22458;45.328;9.514;2022-12-13T12:19:45;7.10;85.40
36424;DHT22;22458;45.328;9.514;2022-12-13T12:22:35;7.10;85.70
36424;DHT22;22458;45.328;9.514;2022-12-13T12:27:50;7.40;84.80
36424;DHT22;22458;45.328;9.514;2022-12-13T12:36:06;7.00;85.50
36424;DHT22;22458;45.328;9.514;2022-12-13T12:41:24;6.80;85.80
36424;DHT22;22458;45.328;9.514;2022-12-13T12:44:16;6.70;86.50
36424;DHT22;22458;45.328;9.514;2022-12-13T12:52:37;6.70;86.60
36424;DHT22;22458;45.328;9.514;2022-12-13T13:00:20;6.40;87.70
36424;DHT22;22458;45.328;9.514;2022-12-13T13:03:15;6.50;87.90
36424;DHT22;22458;45.328;9.514;2022-12-13T13:10:58;6.70;87.40
36424;DHT22;22458;45.328;9.514;2022-12-13T13:16:39;6.70;87.10
36424;DHT22;22458;45.328;9.514;2022-12-13T13:21:48;7.10;86.40
36424;DHT22;22458;45.328;9.514;2022-12-13T13:24:16;7.20;85.70
36424;DHT22;22458;45.328;9.514;2022-12-13T13:34:41;7.50;85.00
36424;DHT22;22458;45.328;9.514;2022-12-13T13:42:30;7.50;84.30
36424;DHT22;22458;45.328;9.514;2022-12-13T13:45:16;7.50;84.60
36424;DHT22;22458;45.328;9.514;2022-12-13T13:47:43;7.60;84.40
36424;DHT22;22458;45.328;9.514;2022-12-13T13:50:20;7.70;84.10
36424;DHT22;22458;45.328;9.514;2022-12-13T13:56:43;7.50;84.90
36424;DHT22;22458;45.328;9.514;2022-12-13T14:16:32;8.10;82.90
36424;DHT22;22458;45.328;9.514;2022-12-13T14:29:48;8.50;81.30
36424;DHT22;22458;45.328;9.514;2022-12-13T14:32:24;8.00;82.40
36424;DHT22;22458;45.328;9.514;2022-12-13T14:34:57;7.80;83.30
36424;DHT22;22458;45.328;9.514;2022-12-13T14:37:29;7.90;83.30
36424;DHT22;22458;45.328;9.514;2022-12-13T14:39:57;8.00;82.90
36424;DHT22;22458;45.328;9.514;2022-12-13T14:42:33;8.00;82.90
36424;DHT22;22458;45.328;9.514;2022-12-13T14:45:14;7.80;82.80
36424;DHT22;22458;45.328;9.514;2022-12-13T14:47:43;7.60;83.50
36424;DHT22;22458;45.328;9.514;2022-12-13T14:50:15;7.30;83.90
36424;DHT22;22458;45.328;9.514;2022-12-13T14:52:42;7.40;84.30
36424;DHT22;22458;45.328;9.514;2022-12-13T14:55:28;7.40;84.30
36424;DHT22;22458;45.328;9.514;2022-12-13T14:57:57;7.40;84.10
36424;DHT22;22458;45.328;9.514;2022-12-13T15:00:30;7.30;84.40
36424;DHT22;22458;45.328;9.514;2022-12-13T15:02:59;7.30;84.40
36424;DHT22;22458;45.328;9.514;2022-12-13T15:05:32;7.20;84.60
36424;DHT22;22458;45.328;9.514;2022-12-13T15:07:59;7.20;84.50
36424;DHT22;22458;45.328;9.514;2022-12-13T15:10:38;7.20;84.60
36424;DHT22;22458;45.328;9.514;2022-12-13T15:13:05;7.20;84.70
36424;DHT22;22458;45.328;9.514;2022-12-13T15:15:33;7.00;84.70
36424;DHT22;22458;45.328;9.514;2022-12-13T15:20:39;7.10;85.00
36424;DHT22;22458;45.328;9.514;2022-12-13T15:25:51;7.30;84.40
36424;DHT22;22458;45.328;9.514;2022-12-13T15:28:20;7.50;84.00
36424;DHT22;22458;45.328;9.514;2022-12-13T15:30:46;7.70;83.30
36424;DHT22;22458;45.328;9.514;2022-12-13T15:33:21;7.80;82.80
36424;DHT22;22458;45.328;9.514;2022-12-13T15:35:49;7.80;82.80
36424;DHT22;22458;45.328;9.514;2022-12-13T15:38:25;7.80;82.70
36424;DHT22;22458;45.328;9.514;2022-12-13T15:40:51;7.80;82.70
36424;DHT22;22458;45.328;9.514;2022-12-13T15:43:21;7.80;82.70
36424;DHT22;22458;45.328;9.514;2022-12-13T15:45:49;7.70;82.70
36424;DHT22;22458;45.328;9.514;2022-12-13T15:50:50;7.90;82.50
36424;DHT22;22458;45.328;9.514;2022-12-13T15:53:28;8.00;82.10
36424;DHT22;22458;45.328;9.514;2022-12-13T15:55:54;7.80;82.40
36424;DHT22;22458;45.328;9.514;2022-12-13T15:58:26;7.80;82.70
36424;DHT22;22458;45.328;9.514;2022-12-13T16:00:52;8.00;82.10
36424;DHT22;22458;45.328;9.514;2022-12-13T16:03:20;8.20;81.30
36424;DHT22;22458;45.328;9.514;2022-12-13T16:05:52;8.30;80.80
36424;DHT22;22458;45.328;9.514;2022-12-13T16:08:29;8.40;80.50
36424;DHT22;22458;45.328;9.514;2022-12-13T16:10:57;8.70;80.00
36424;DHT22;22458;45.328;9.514;2022-12-13T16:13:28;8.90;79.20
36424;DHT22;22458;45.328;9.514;2022-12-13T16:15:57;9.00;78.70
36424;DHT22;22458;45.328;9.514;2022-12-13T16:18:27;8.90;78.50
36424;DHT22;22458;45.328;9.514;2022-12-13T16:20:55;9.00;78.30
36424;DHT22;22458;45.328;9.514;2022-12-13T16:23:21;9.10;78.20
36424;DHT22;22458;45.328;9.514;2022-12-13T16:25:47;9.10;78.00
36424;DHT22;22458;45.328;9.514;2022-12-13T16:28:14;9.10;77.90
36424;DHT22;22458;45.328;9.514;2022-12-13T16:31:00;9.00;77.80
36424;DHT22;22458;45.328;9.514;2022-12-13T16:33:26;8.90;78.00
36424;DHT22;22458;45.328;9.514;2022-12-13T16:35:52;9.00;77.90
36424;DHT22;22458;45.328;9.514;2022-12-13T16:38:18;9.10;77.70
36424;DHT22;22458;45.328;9.514;2022-12-13T16:40:45;9.10;77.60
36424;DHT22;22458;45.328;9.514;2022-12-13T16:43:18;8.90;77.80
36424;DHT22;22458;45.328;9.514;2022-12-13T16:45:47;8.80;78.20
36424;DHT22;22458;45.328;9.514;2022-12-13T16:48:14;8.80;78.20
36424;DHT22;22458;45.328;9.514;2022-12-13T16:50:42;8.90;78.20
36424;DHT22;22458;45.328;9.514;2022-12-13T16:53:08;9.00;78.40
36424;DHT22;22458;45.328;9.514;2022-12-13T16:55:35;9.10;77.70
36424;DHT22;22458;45.328;9.514;2022-12-13T16:58:03;9.20;77.50
36424;DHT22;22458;45.328;9.514;2022-12-13T17:00:29;9.10;77.30
36424;DHT22;22458;45.328;9.514;2022-12-13T17:02:57;9.10;77.30
36424;DHT22;22458;45.328;9.514;2022-12-13T17:05:24;9.10;77.50
36424;DHT22;22458;45.328;9.514;2022-12-13T17:07:50;9.00;77.50
36424;DHT22;22458;45.328;9.514;2022-12-13T17:10:16;9.00;77.50
36424;DHT22;22458;45.328;9.514;2022-12-13T17:12:43;9.10;77.20
36424;DHT22;22458;45.328;9.514;2022-12-13T17:15:09;9.30;77.00
36424;DHT22;22458;45.328;9.514;2022-12-13T17:17:36;9.30;76.80
36424;DHT22;22458;45.328;9.514;2022-12-13T17:20:05;9.30;76.80
36424;DHT22;22458;45.328;9.514;2022-12-13T17:22:31;9.30;76.60
36424;DHT22;22458;45.328;9.514;2022-12-13T17:24:57;9.40;76.40
36424;DHT22;22458;45.328;9.514;2022-12-13T17:27:22;9.30;76.10
36424;DHT22;22458;45.328;9.514;2022-12-13T17:29:48;9.30;76.20
36424;DHT22;22458;45.328;9.514;2022-12-13T17:32:14;9.40;76.20
36424;DHT22;22458;45.328;9.514;2022-12-13T17:34:39;9.50;76.00
36424;DHT22;22458;45.328;9.514;2022-12-13T17:37:05;9.60;75.70
36424;DHT22;22458;45.328;9.514;2022-12-13T17:39:32;9.70;75.50
36424;DHT22;22458;45.328;9.514;2022-12-13T17:41:58;9.80;75.20
36424;DHT22;22458;45.328;9.514;2022-12-13T17:44:24;9.90;74.80
36424;DHT22;22458;45.328;9.514;2022-12-13T17:46:51;10.00;74.60
36424;DHT22;22458;45.328;9.514;2022-12-13T17:49:18;10.00;74.50
36424;DHT22;22458;45.328;9.514;2022-12-13T17:51:44;10.00;74.40
36424;DHT22;22458;45.328;9.514;2022-12-13T17:54:10;10.10;74.40
36424;DHT22;22458;45.328;9.514;2022-12-13T17:56:36;10.10;74.20
36424;DHT22;22458;45.328;9.514;2022-12-13T17:59:03;10.10;74.00
36424;DHT22;22458;45.328;9.514;2022-12-13T18:01:29;10.00;74.00
36424;DHT22;22458;45.328;9.514;2022-12-13T18:03:55;9.80;74.50
36424;DHT22;22458;45.328;9.514;2022-12-13T18:06:23;9.80;74.80
36424;DHT22;22458;45.328;9.514;2022-12-13T18:08:52;9.60;75.00
36424;DHT22;22458;45.328;9.514;2022-12-13T18:11:18;9.50;75.50
36424;DHT22;22458;45.328;9.514;2022-12-13T18:13:45;9.50;75.70
36424;DHT22;22458;45.328;9.514;2022-12-13T18:16:13;9.50;75.70